Terminal Aerodrome Forecast
Issued by NWS Cleveland, OH

Home | Current Version | Previous Version | Graphics & Text | Print | Product List | Glossary On
Versions: 1 2 3 4 5 6 7 8 9 10 11 12 13 14 15 16 17 18 19 20 21 22 23 24 25
000
FTUS41 KCLE 300300 AAB
TAFYNG
TAF AMD
KYNG 300308Z 3003/3024 30012KT P6SM OVC015
      TEMPO 3003/3006 -SN OVC009
     FM301100 30012G19KT P6SM OVC015
     FM301300 31012G19KT 1 1/2SM -SN OVC015
     FM301600 32014G21KT P6SM OVC015
     FM302200 31012KT P6SM OVC015=

USA.gov is the U.S. government's official web portal to all federal, state and local government web resources and services.